Manchester, Tennessee
Current Conditions -  °F | °C
As of 5:15 AM on Saturday 01 Nov 2014 (Local Time) from KTHA Reporting Station
Overcast Overcast  
Wind Chill: 26°   Ceiling: 2800
Heat Index: 36°   Visibility: 10mi
Dew Point: 25°   Wind: 15mph
Humidity: 65%   Direction: 340°NNW
Pressure: 30.12"   Gusts: NA
Location:  35.48°N, 86.08°W
Report Text: KTHA 011015Z AUTO 34013KT 10SM OVC028 02/M04 A3012 RMK
Loading
Personal Weather Stations






























Interactive Weather Map
Tropical Storm Tracking
New forecast layout! Learn more

10-Day Weather Forecast

Advertisements
Track Severe Weather on mobile